sensor_id;sensor_type;location;lat;lon;timestamp;pressure;altitude;pressure_sealevel;temperature;humidity
32761;BME280;19126;47.472;7.850;2023-01-01T00:01:40;97080.97;;;6.10;32.59
32761;BME280;19126;47.472;7.850;2023-01-01T00:04:12;97082.91;;;6.18;32.36
32761;BME280;19126;47.472;7.850;2023-01-01T00:06:40;97091.84;;;6.25;30.54
32761;BME280;19126;47.472;7.850;2023-01-01T00:09:08;97089.78;;;6.28;29.42
32761;BME280;19126;47.472;7.850;2023-01-01T00:11:53;97088.56;;;6.33;29.21
32761;BME280;19126;47.472;7.850;2023-01-01T00:14:21;97086.38;;;6.38;29.36
32761;BME280;19126;47.472;7.850;2023-01-01T00:16:48;97084.88;;;6.45;28.87
32761;BME280;19126;47.472;7.850;2023-01-01T00:19:17;97090.22;;;6.53;27.21
32761;BME280;19126;47.472;7.850;2023-01-01T00:21:44;97083.78;;;6.57;27.36
32761;BME280;19126;47.472;7.850;2023-01-01T00:24:12;97078.81;;;6.54;28.98
32761;BME280;19126;47.472;7.850;2023-01-01T00:26:39;97076.34;;;6.53;29.01
32761;BME280;19126;47.472;7.850;2023-01-01T00:29:07;97071.13;;;6.53;28.27
32761;BME280;19126;47.472;7.850;2023-01-01T00:31:34;97073.88;;;6.51;28.58
32761;BME280;19126;47.472;7.850;2023-01-01T00:34:01;97069.91;;;6.47;29.40
32761;BME280;19126;47.472;7.850;2023-01-01T00:36:30;97068.63;;;6.41;29.41
32761;BME280;19126;47.472;7.850;2023-01-01T00:38:57;97066.03;;;6.41;30.05
32761;BME280;19126;47.472;7.850;2023-01-01T00:41:24;97055.31;;;6.44;29.46
32761;BME280;19126;47.472;7.850;2023-01-01T00:43:52;97057.94;;;6.44;29.99
32761;BME280;19126;47.472;7.850;2023-01-01T00:46:19;97044.88;;;6.44;30.65
32761;BME280;19126;47.472;7.850;2023-01-01T00:48:46;97047.22;;;6.48;29.62
32761;BME280;19126;47.472;7.850;2023-01-01T00:51:14;97061.22;;;6.47;28.94
32761;BME280;19126;47.472;7.850;2023-01-01T00:53:42;97051.91;;;6.44;29.43
32761;BME280;19126;47.472;7.850;2023-01-01T00:56:10;97059.03;;;6.52;29.41
32761;BME280;19126;47.472;7.850;2023-01-01T00:58:37;97048.84;;;6.49;29.73
32761;BME280;19126;47.472;7.850;2023-01-01T01:01:05;97050.25;;;6.43;30.02
32761;BME280;19126;47.472;7.850;2023-01-01T01:03:33;97047.50;;;6.35;30.46
32761;BME280;19126;47.472;7.850;2023-01-01T01:06:09;97054.09;;;6.39;30.33
32761;BME280;19126;47.472;7.850;2023-01-01T01:08:40;97055.44;;;6.33;30.83
32761;BME280;19126;47.472;7.850;2023-01-01T01:11:12;97044.75;;;6.26;31.35
32761;BME280;19126;47.472;7.850;2023-01-01T01:13:41;97046.41;;;6.27;31.80
32761;BME280;19126;47.472;7.850;2023-01-01T01:16:09;97055.59;;;6.32;31.25
32761;BME280;19126;47.472;7.850;2023-01-01T01:18:37;97049.16;;;6.36;31.03
32761;BME280;19126;47.472;7.850;2023-01-01T01:21:05;97049.28;;;6.34;31.61
32761;BME280;19126;47.472;7.850;2023-01-01T01:23:33;97044.59;;;6.28;32.43
32761;BME280;19126;47.472;7.850;2023-01-01T01:26:10;97051.19;;;6.32;32.04
32761;BME280;19126;47.472;7.850;2023-01-01T01:28:38;97057.66;;;6.28;33.45
32761;BME280;19126;47.472;7.850;2023-01-01T01:31:06;97056.97;;;6.26;33.91
32761;BME280;19126;47.472;7.850;2023-01-01T01:33:33;97065.06;;;6.23;34.61
32761;BME280;19126;47.472;7.850;2023-01-01T01:36:02;97068.50;;;6.23;34.13
32761;BME280;19126;47.472;7.850;2023-01-01T01:38:29;97066.44;;;6.27;33.16
32761;BME280;19126;47.472;7.850;2023-01-01T01:40:57;97062.03;;;6.18;34.53
32761;BME280;19126;47.472;7.850;2023-01-01T01:43:50;97071.38;;;6.20;34.73
32761;BME280;19126;47.472;7.850;2023-01-01T01:46:24;97065.88;;;6.13;34.73
32761;BME280;19126;47.472;7.850;2023-01-01T01:48:53;97074.50;;;6.04;35.91
32761;BME280;19126;47.472;7.850;2023-01-01T01:51:26;97070.53;;;6.10;35.45
32761;BME280;19126;47.472;7.850;2023-01-01T01:53:59;97067.78;;;6.11;35.46
32761;BME280;19126;47.472;7.850;2023-01-01T01:56:35;97083.16;;;6.14;35.04
32761;BME280;19126;47.472;7.850;2023-01-01T01:59:07;97079.63;;;6.25;33.86
32761;BME280;19126;47.472;7.850;2023-01-01T02:01:35;97073.03;;;6.21;33.65
32761;BME280;19126;47.472;7.850;2023-01-01T02:04:03;97074.13;;;6.19;34.08
32761;BME280;19126;47.472;7.850;2023-01-01T02:06:32;97075.63;;;6.11;34.98
32761;BME280;19126;47.472;7.850;2023-01-01T02:09:04;97076.72;;;6.09;34.84
32761;BME280;19126;47.472;7.850;2023-01-01T02:11:32;97080.97;;;6.10;34.74
32761;BME280;19126;47.472;7.850;2023-01-01T02:14:00;97070.81;;;6.07;34.37
32761;BME280;19126;47.472;7.850;2023-01-01T02:16:36;97064.75;;;6.06;34.30
32761;BME280;19126;47.472;7.850;2023-01-01T02:19:17;97062.56;;;6.11;32.27
32761;BME280;19126;47.472;7.850;2023-01-01T02:22:01;97061.88;;;6.09;32.24
32761;BME280;19126;47.472;7.850;2023-01-01T02:25:08;97070.28;;;6.13;32.46
32761;BME280;19126;47.472;7.850;2023-01-01T02:27:49;97054.78;;;6.21;31.62
32761;BME280;19126;47.472;7.850;2023-01-01T02:30:21;97059.56;;;6.26;30.89
32761;BME280;19126;47.472;7.850;2023-01-01T02:32:53;97059.28;;;6.29;29.57
32761;BME280;19126;47.472;7.850;2023-01-01T02:35:25;97072.06;;;6.32;29.14
32761;BME280;19126;47.472;7.850;2023-01-01T02:38:05;97068.09;;;6.38;28.77
32761;BME280;19126;47.472;7.850;2023-01-01T02:40:40;97073.59;;;6.44;28.22
32761;BME280;19126;47.472;7.850;2023-01-01T02:43:08;97061.38;;;6.55;26.54
32761;BME280;19126;47.472;7.850;2023-01-01T02:45:37;97072.91;;;6.62;26.33
32761;BME280;19126;47.472;7.850;2023-01-01T02:48:06;97070.44;;;6.70;25.35
32761;BME280;19126;47.472;7.850;2023-01-01T02:50:35;97075.66;;;6.80;23.96
32761;BME280;19126;47.472;7.850;2023-01-01T02:53:11;97068.91;;;6.87;23.11
32761;BME280;19126;47.472;7.850;2023-01-01T02:55:52;97069.88;;;6.96;23.20
32761;BME280;19126;47.472;7.850;2023-01-01T02:58:28;97075.22;;;6.95;22.67
32761;BME280;19126;47.472;7.850;2023-01-01T03:01:25;97079.06;;;7.00;21.91
32761;BME280;19126;47.472;7.850;2023-01-01T03:04:05;97083.63;;;6.98;22.23
32761;BME280;19126;47.472;7.850;2023-01-01T03:06:41;97069.59;;;6.99;22.44
32761;BME280;19126;47.472;7.850;2023-01-01T03:09:19;97084.69;;;7.06;21.88
32761;BME280;19126;47.472;7.850;2023-01-01T03:11:56;97092.50;;;7.15;22.16
32761;BME280;19126;47.472;7.850;2023-01-01T03:14:31;97085.63;;;7.24;21.70
32761;BME280;19126;47.472;7.850;2023-01-01T03:17:08;97084.91;;;7.32;21.88
32761;BME280;19126;47.472;7.850;2023-01-01T03:19:45;97094.94;;;7.37;21.75
32761;BME280;19126;47.472;7.850;2023-01-01T03:22:16;97091.50;;;7.36;22.44
32761;BME280;19126;47.472;7.850;2023-01-01T03:24:49;97094.38;;;7.33;22.56
32761;BME280;19126;47.472;7.850;2023-01-01T03:27:26;97083.53;;;7.28;23.72
32761;BME280;19126;47.472;7.850;2023-01-01T03:29:58;97089.16;;;7.33;23.75
32761;BME280;19126;47.472;7.850;2023-01-01T03:32:33;97092.75;;;7.32;24.38
32761;BME280;19126;47.472;7.850;2023-01-01T03:35:17;97082.44;;;7.30;25.46
32761;BME280;19126;47.472;7.850;2023-01-01T03:37:48;97085.47;;;7.26;26.04
32761;BME280;19126;47.472;7.850;2023-01-01T03:40:19;97078.59;;;7.25;26.78
32761;BME280;19126;47.472;7.850;2023-01-01T03:42:50;97069.50;;;7.29;26.02
32761;BME280;19126;47.472;7.850;2023-01-01T03:45:23;97082.84;;;7.26;27.16
32761;BME280;19126;47.472;7.850;2023-01-01T03:47:53;97090.97;;;7.23;28.50
32761;BME280;19126;47.472;7.850;2023-01-01T03:50:25;97091.25;;;7.19;29.95
32761;BME280;19126;47.472;7.850;2023-01-01T03:53:00;97085.06;;;7.30;29.74
32761;BME280;19126;47.472;7.850;2023-01-01T03:55:33;97088.91;;;7.26;31.99
32761;BME280;19126;47.472;7.850;2023-01-01T03:58:04;97090.81;;;7.34;31.18
32761;BME280;19126;47.472;7.850;2023-01-01T04:00:42;97083.53;;;7.38;31.96
32761;BME280;19126;47.472;7.850;2023-01-01T04:03:17;97096.03;;;7.34;34.29
32761;BME280;19126;47.472;7.850;2023-01-01T04:05:49;97086.31;;;7.26;36.00
32761;BME280;19126;47.472;7.850;2023-01-01T04:08:17;97085.63;;;7.24;37.60
32761;BME280;19126;47.472;7.850;2023-01-01T04:10:50;97101.03;;;7.17;39.30
32761;BME280;19126;47.472;7.850;2023-01-01T04:13:18;97096.34;;;7.11;39.71
32761;BME280;19126;47.472;7.850;2023-01-01T04:15:46;97083.75;;;7.07;40.61
32761;BME280;19126;47.472;7.850;2023-01-01T04:18:14;97092.94;;;7.01;41.24
32761;BME280;19126;47.472;7.850;2023-01-01T04:21:00;97098.03;;;7.02;41.40
32761;BME280;19126;47.472;7.850;2023-01-01T04:23:27;97097.91;;;6.94;42.80
32761;BME280;19126;47.472;7.850;2023-01-01T04:25:54;97092.97;;;6.91;42.94
32761;BME280;19126;47.472;7.850;2023-01-01T04:28:22;97094.22;;;6.87;43.35
32761;BME280;19126;47.472;7.850;2023-01-01T04:30:52;97095.31;;;6.84;42.80
32761;BME280;19126;47.472;7.850;2023-01-01T04:33:24;97093.94;;;6.80;43.81
32761;BME280;19126;47.472;7.850;2023-01-01T04:35:51;97085.41;;;6.78;44.03
32761;BME280;19126;47.472;7.850;2023-01-01T04:38:19;97096.56;;;6.70;43.99
32761;BME280;19126;47.472;7.850;2023-01-01T04:41:10;97086.50;;;6.66;44.89
32761;BME280;19126;47.472;7.850;2023-01-01T04:43:46;97086.09;;;6.60;44.27
32761;BME280;19126;47.472;7.850;2023-01-01T04:46:19;97094.47;;;6.54;44.50
32761;BME280;19126;47.472;7.850;2023-01-01T04:49:03;97087.63;;;6.53;44.30
32761;BME280;19126;47.472;7.850;2023-01-01T04:55:26;97089.81;;;6.48;43.72
32761;BME280;19126;47.472;7.850;2023-01-01T04:58:43;97086.25;;;6.49;41.74
32761;BME280;19126;47.472;7.850;2023-01-01T05:04:52;97099.28;;;6.29;43.75
32761;BME280;19126;47.472;7.850;2023-01-01T05:15:09;97094.13;;;6.08;46.52
32761;BME280;19126;47.472;7.850;2023-01-01T05:22:01;97108.22;;;5.96;46.11
32761;BME280;19126;47.472;7.850;2023-01-01T05:25:01;97098.19;;;5.91;46.61
32761;BME280;19126;47.472;7.850;2023-01-01T05:27:28;97096.81;;;5.87;47.04
32761;BME280;19126;47.472;7.850;2023-01-01T05:29:55;97099.53;;;5.85;45.73
32761;BME280;19126;47.472;7.850;2023-01-01T05:32:23;97102.56;;;5.81;44.89
32761;BME280;19126;47.472;7.850;2023-01-01T05:34:59;97102.69;;;5.79;45.98
32761;BME280;19126;47.472;7.850;2023-01-01T05:37:37;97100.66;;;5.83;44.47
32761;BME280;19126;47.472;7.850;2023-01-01T05:40:06;97101.34;;;5.85;44.48
32761;BME280;19126;47.472;7.850;2023-01-01T05:42:39;97106.13;;;5.80;44.82
32761;BME280;19126;47.472;7.850;2023-01-01T05:45:22;97107.72;;;5.71;45.43
32761;BME280;19126;47.472;7.850;2023-01-01T05:48:44;97099.63;;;5.74;44.59
32761;BME280;19126;47.472;7.850;2023-01-01T05:51:57;97105.97;;;5.81;43.83
32761;BME280;19126;47.472;7.850;2023-01-01T05:54:47;97090.97;;;5.64;43.64
32761;BME280;19126;47.472;7.850;2023-01-01T06:08:19;97114.41;;;5.64;42.08
32761;BME280;19126;47.472;7.850;2023-01-01T06:14:45;97122.16;;;5.75;41.48
32761;BME280;19126;47.472;7.850;2023-01-01T06:17:12;97114.72;;;5.70;41.80
32761;BME280;19126;47.472;7.850;2023-01-01T06:19:39;97105.25;;;5.69;41.90
32761;BME280;19126;47.472;7.850;2023-01-01T06:22:06;97113.88;;;5.70;42.65
32761;BME280;19126;47.472;7.850;2023-01-01T06:24:34;97107.72;;;5.71;42.49
32761;BME280;19126;47.472;7.850;2023-01-01T06:27:01;97112.66;;;5.64;43.72
32761;BME280;19126;47.472;7.850;2023-01-01T06:29:28;97109.19;;;5.64;43.97
32761;BME280;19126;47.472;7.850;2023-01-01T06:31:57;97115.00;;;5.67;44.05
32761;BME280;19126;47.472;7.850;2023-01-01T06:34:24;97120.38;;;5.76;43.17
32761;BME280;19126;47.472;7.850;2023-01-01T06:36:51;97127.50;;;5.74;44.31
32761;BME280;19126;47.472;7.850;2023-01-01T06:39:19;97124.75;;;5.75;44.23
32761;BME280;19126;47.472;7.850;2023-01-01T06:41:46;97131.34;;;5.79;44.75
32761;BME280;19126;47.472;7.850;2023-01-01T06:44:13;97142.34;;;5.83;45.67
32761;BME280;19126;47.472;7.850;2023-01-01T06:46:41;97138.38;;;5.89;45.09
32761;BME280;19126;47.472;7.850;2023-01-01T06:49:11;97139.66;;;5.94;45.97
32761;BME280;19126;47.472;7.850;2023-01-01T06:51:40;97143.91;;;5.95;46.55
32761;BME280;19126;47.472;7.850;2023-01-01T06:54:08;97143.50;;;6.00;46.79
32761;BME280;19126;47.472;7.850;2023-01-01T06:56:36;97139.66;;;5.94;49.78
32761;BME280;19126;47.472;7.850;2023-01-01T06:59:04;97148.69;;;5.90;51.87
32761;BME280;19126;47.472;7.850;2023-01-01T07:01:34;97152.69;;;5.94;52.59
32761;BME280;19126;47.472;7.850;2023-01-01T07:04:04;97151.78;;;6.05;51.36
32761;BME280;19126;47.472;7.850;2023-01-01T07:06:34;97157.25;;;6.02;53.10
32761;BME280;19126;47.472;7.850;2023-01-01T07:09:02;97153.84;;;6.01;56.00
32761;BME280;19126;47.472;7.850;2023-01-01T07:11:30;97153.59;;;6.14;53.52
32761;BME280;19126;47.472;7.850;2023-01-01T07:13:58;97161.16;;;6.18;55.56
32761;BME280;19126;47.472;7.850;2023-01-01T07:16:25;97154.06;;;6.29;55.09
32761;BME280;19126;47.472;7.850;2023-01-01T07:18:52;97155.44;;;6.34;55.82
32761;BME280;19126;47.472;7.850;2023-01-01T07:21:29;97159.00;;;6.42;55.13
32761;BME280;19126;47.472;7.850;2023-01-01T07:23:59;97161.50;;;6.44;57.48
32761;BME280;19126;47.472;7.850;2023-01-01T07:26:28;97148.88;;;6.49;57.44
32761;BME280;19126;47.472;7.850;2023-01-01T07:29:00;97162.34;;;6.54;59.07
32761;BME280;19126;47.472;7.850;2023-01-01T07:31:27;97156.16;;;6.55;60.51
32761;BME280;19126;47.472;7.850;2023-01-01T07:33:55;97157.81;;;6.56;60.96
32761;BME280;19126;47.472;7.850;2023-01-01T07:36:22;97160.28;;;6.58;62.98
32761;BME280;19126;47.472;7.850;2023-01-01T07:38:49;97149.16;;;6.56;65.21
32761;BME280;19126;47.472;7.850;2023-01-01T07:41:18;97144.50;;;6.59;64.42
32761;BME280;19126;47.472;7.850;2023-01-01T07:43:45;97160.06;;;6.81;62.87
32761;BME280;19126;47.472;7.850;2023-01-01T07:46:13;97164.72;;;6.77;65.43
32761;BME280;19126;47.472;7.850;2023-01-01T07:48:43;97161.28;;;6.86;64.67
32761;BME280;19126;47.472;7.850;2023-01-01T07:51:11;97174.75;;;7.11;64.46
32761;BME280;19126;47.472;7.850;2023-01-01T07:53:38;97158.91;;;7.32;66.09
32761;BME280;19126;47.472;7.850;2023-01-01T07:56:06;97157.34;;;7.59;65.45
32761;BME280;19126;47.472;7.850;2023-01-01T07:58:38;97167.16;;;7.95;64.40
32761;BME280;19126;47.472;7.850;2023-01-01T08:01:08;97177.34;;;8.26;66.35
32761;BME280;19126;47.472;7.850;2023-01-01T08:03:35;97180.81;;;8.45;73.49
32761;BME280;19126;47.472;7.850;2023-01-01T08:06:07;97176.44;;;8.63;81.43
32761;BME280;19126;47.472;7.850;2023-01-01T08:08:35;97187.47;;;8.85;86.12
32761;BME280;19126;47.472;7.850;2023-01-01T08:11:03;97177.66;;;9.05;91.04
32761;BME280;19126;47.472;7.850;2023-01-01T08:13:30;97174.75;;;8.90;100.00
32761;BME280;19126;47.472;7.850;2023-01-01T08:15:59;97180.78;;;8.91;100.00
32761;BME280;19126;47.472;7.850;2023-01-01T08:18:26;97177.97;;;8.84;100.00
32761;BME280;19126;47.472;7.850;2023-01-01T08:20:53;97173.75;;;8.73;100.00
32761;BME280;19126;47.472;7.850;2023-01-01T08:23:22;97179.16;;;8.72;100.00
32761;BME280;19126;47.472;7.850;2023-01-01T08:25:49;97180.25;;;8.69;100.00
32761;BME280;19126;47.472;7.850;2023-01-01T08:28:17;97188.00;;;8.71;100.00
32761;BME280;19126;47.472;7.850;2023-01-01T08:30:44;97191.56;;;8.70;100.00
32761;BME280;19126;47.472;7.850;2023-01-01T08:33:13;97184.56;;;8.88;100.00
32761;BME280;19126;47.472;7.850;2023-01-01T08:35:41;97185.50;;;9.05;100.00
32761;BME280;19126;47.472;7.850;2023-01-01T08:38:11;97203.69;;;9.25;100.00
32761;BME280;19126;47.472;7.850;2023-01-01T08:40:38;97194.66;;;9.37;100.00
32761;BME280;19126;47.472;7.850;2023-01-01T08:43:06;97197.53;;;9.52;100.00
32761;BME280;19126;47.472;7.850;2023-01-01T08:45:33;97184.06;;;9.74;100.00
32761;BME280;19126;47.472;7.850;2023-01-01T08:48:01;97202.34;;;9.92;100.00
32761;BME280;19126;47.472;7.850;2023-01-01T08:50:29;97191.09;;;10.00;100.00
32761;BME280;19126;47.472;7.850;2023-01-01T08:52:57;97196.69;;;10.39;100.00
32761;BME280;19126;47.472;7.850;2023-01-01T08:55:24;97192.88;;;10.77;100.00
32761;BME280;19126;47.472;7.850;2023-01-01T08:57:52;97189.63;;;10.99;100.00
32761;BME280;19126;47.472;7.850;2023-01-01T09:00:19;97187.03;;;11.41;100.00
32761;BME280;19126;47.472;7.850;2023-01-01T09:02:47;97179.06;;;11.82;100.00
32761;BME280;19126;47.472;7.850;2023-01-01T09:05:14;97202.41;;;12.02;100.00
32761;BME280;19126;47.472;7.850;2023-01-01T09:07:43;97186.53;;;12.27;100.00
32761;BME280;19126;47.472;7.850;2023-01-01T09:10:10;97201.63;;;12.41;100.00
32761;BME280;19126;47.472;7.850;2023-01-01T09:12:38;97201.94;;;12.78;100.00
32761;BME280;19126;47.472;7.850;2023-01-01T09:15:11;97206.47;;;13.16;100.00
32761;BME280;19126;47.472;7.850;2023-01-01T09:17:40;97204.72;;;13.31;100.00
32761;BME280;19126;47.472;7.850;2023-01-01T09:20:08;97203.56;;;13.72;100.00
32761;BME280;19126;47.472;7.850;2023-01-01T09:22:35;97197.50;;;14.02;100.00
32761;BME280;19126;47.472;7.850;2023-01-01T09:25:05;97206.31;;;14.24;100.00
32761;BME280;19126;47.472;7.850;2023-01-01T09:27:32;97201.09;;;14.61;100.00
32761;BME280;19126;47.472;7.850;2023-01-01T09:29:59;97195.72;;;15.06;100.00
32761;BME280;19126;47.472;7.850;2023-01-01T09:32:27;97197.72;;;15.47;100.00
32761;BME280;19126;47.472;7.850;2023-01-01T09:34:54;97196.59;;;15.63;98.82
32761;BME280;19126;47.472;7.850;2023-01-01T09:37:22;97197.31;;;15.50;92.02
32761;BME280;19126;47.472;7.850;2023-01-01T09:39:50;97197.84;;;15.67;90.10
32761;BME280;19126;47.472;7.850;2023-01-01T09:42:31;97202.09;;;15.62;88.70
32761;BME280;19126;47.472;7.850;2023-01-01T09:45:20;97204.03;;;15.96;89.51
32761;BME280;19126;47.472;7.850;2023-01-01T09:47:51;97207.00;;;16.22;89.37
32761;BME280;19126;47.472;7.850;2023-01-01T09:50:23;97193.03;;;15.78;86.49
32761;BME280;19126;47.472;7.850;2023-01-01T09:52:55;97194.91;;;16.06;85.33
32761;BME280;19126;47.472;7.850;2023-01-01T09:55:27;97185.19;;;16.20;86.70
32761;BME280;19126;47.472;7.850;2023-01-01T09:57:56;97193.06;;;16.48;88.83
32761;BME280;19126;47.472;7.850;2023-01-01T10:00:24;97181.06;;;16.59;87.90
32761;BME280;19126;47.472;7.850;2023-01-01T10:03:17;97192.53;;;16.80;86.27
32761;BME280;19126;47.472;7.850;2023-01-01T10:05:54;97176.25;;;16.96;84.39
32761;BME280;19126;47.472;7.850;2023-01-01T10:08:38;97187.69;;;16.83;81.64
32761;BME280;19126;47.472;7.850;2023-01-01T10:11:18;97170.56;;;16.99;81.95
32761;BME280;19126;47.472;7.850;2023-01-01T10:13:49;97175.09;;;17.12;80.68
32761;BME280;19126;47.472;7.850;2023-01-01T10:16:29;97174.50;;;17.10;76.89
32761;BME280;19126;47.472;7.850;2023-01-01T10:19:06;97167.28;;;16.91;76.11
32761;BME280;19126;47.472;7.850;2023-01-01T10:21:41;97161.31;;;16.82;77.72
32761;BME280;19126;47.472;7.850;2023-01-01T10:24:40;97156.06;;;16.89;79.34
32761;BME280;19126;47.472;7.850;2023-01-01T10:27:18;97154.81;;;16.84;74.91
32761;BME280;19126;47.472;7.850;2023-01-01T10:29:52;97148.69;;;16.84;72.59
32761;BME280;19126;47.472;7.850;2023-01-01T10:32:24;97152.56;;;16.88;73.26
32761;BME280;19126;47.472;7.850;2023-01-01T10:34:53;97140.78;;;16.97;76.59
32761;BME280;19126;47.472;7.850;2023-01-01T10:37:21;97145.50;;;17.02;75.12
32761;BME280;19126;47.472;7.850;2023-01-01T10:39:49;97150.59;;;16.97;75.03
32761;BME280;19126;47.472;7.850;2023-01-01T10:42:16;97151.97;;;16.93;76.09
32761;BME280;19126;47.472;7.850;2023-01-01T10:44:44;97145.63;;;16.87;71.54
32761;BME280;19126;47.472;7.850;2023-01-01T10:47:28;97145.63;;;16.87;74.03
32761;BME280;19126;47.472;7.850;2023-01-01T10:49:58;97146.81;;;16.78;77.24
32761;BME280;19126;47.472;7.850;2023-01-01T10:52:29;97141.91;;;16.68;73.03
32761;BME280;19126;47.472;7.850;2023-01-01T10:54:57;97140.88;;;16.55;71.06
32761;BME280;19126;47.472;7.850;2023-01-01T10:57:33;97134.88;;;16.33;69.59
32761;BME280;19126;47.472;7.850;2023-01-01T11:00:19;97134.00;;;16.19;71.05
32761;BME280;19126;47.472;7.850;2023-01-01T11:03:18;97130.91;;;16.16;72.30
32761;BME280;19126;47.472;7.850;2023-01-01T11:06:17;97129.38;;;15.93;76.89
32761;BME280;19126;47.472;7.850;2023-01-01T11:08:49;97131.81;;;15.88;76.40
32761;BME280;19126;47.472;7.850;2023-01-01T11:11:25;97125.31;;;15.90;77.20
32761;BME280;19126;47.472;7.850;2023-01-01T11:13:55;97130.31;;;15.85;74.92
32761;BME280;19126;47.472;7.850;2023-01-01T11:16:26;97109.66;;;15.67;74.09
32761;BME280;19126;47.472;7.850;2023-01-01T11:19:03;97119.03;;;15.70;77.67
32761;BME280;19126;47.472;7.850;2023-01-01T11:21:34;97113.16;;;15.74;75.68
32761;BME280;19126;47.472;7.850;2023-01-01T11:24:17;97115.38;;;15.71;76.38
32761;BME280;19126;47.472;7.850;2023-01-01T11:26:45;97115.19;;;15.72;75.13
32761;BME280;19126;47.472;7.850;2023-01-01T11:29:22;97105.22;;;15.74;75.13
32761;BME280;19126;47.472;7.850;2023-01-01T11:31:51;97110.34;;;15.82;75.58
32761;BME280;19126;47.472;7.850;2023-01-01T11:34:31;97098.16;;;15.88;73.17
32761;BME280;19126;47.472;7.850;2023-01-01T11:37:14;97105.97;;;15.96;73.56
32761;BME280;19126;47.472;7.850;2023-01-01T11:39:45;97098.22;;;15.95;69.84
32761;BME280;19126;47.472;7.850;2023-01-01T11:42:17;97095.63;;;16.08;75.43
32761;BME280;19126;47.472;7.850;2023-01-01T11:44:47;97097.47;;;16.15;74.91
32761;BME280;19126;47.472;7.850;2023-01-01T11:47:24;97085.03;;;16.08;72.94
32761;BME280;19126;47.472;7.850;2023-01-01T11:49:57;97086.91;;;16.21;72.31
32761;BME280;19126;47.472;7.850;2023-01-01T11:52:36;97083.03;;;16.24;71.16
32761;BME280;19126;47.472;7.850;2023-01-01T11:55:18;97078.56;;;16.24;76.55
32761;BME280;19126;47.472;7.850;2023-01-01T11:57:58;97079.16;;;16.20;76.51
32761;BME280;19126;47.472;7.850;2023-01-01T12:00:33;97071.00;;;16.21;73.74
32761;BME280;19126;47.472;7.850;2023-01-01T12:03:11;97073.06;;;16.26;78.00
32761;BME280;19126;47.472;7.850;2023-01-01T12:05:49;97069.16;;;16.22;76.09
32761;BME280;19126;47.472;7.850;2023-01-01T12:08:27;97068.19;;;16.30;78.28
32761;BME280;19126;47.472;7.850;2023-01-01T12:11:16;97063.28;;;16.26;76.98
32761;BME280;19126;47.472;7.850;2023-01-01T12:13:49;97061.88;;;16.31;69.89
32761;BME280;19126;47.472;7.850;2023-01-01T12:16:22;97061.69;;;16.39;74.70
32761;BME280;19126;47.472;7.850;2023-01-01T12:18:59;97048.81;;;16.43;72.41
32761;BME280;19126;47.472;7.850;2023-01-01T12:21:30;97044.16;;;16.51;71.90
32761;BME280;19126;47.472;7.850;2023-01-01T12:23:59;97044.78;;;16.53;71.24
32761;BME280;19126;47.472;7.850;2023-01-01T12:26:39;97040.28;;;16.54;70.12
32761;BME280;19126;47.472;7.850;2023-01-01T12:32:19;97037.59;;;16.34;73.98
32761;BME280;19126;47.472;7.850;2023-01-01T12:34:57;97035.72;;;16.21;77.95
32761;BME280;19126;47.472;7.850;2023-01-01T12:37:41;97034.06;;;16.06;79.90
32761;BME280;19126;47.472;7.850;2023-01-01T12:40:37;97021.59;;;16.00;78.48
32761;BME280;19126;47.472;7.850;2023-01-01T12:43:07;97020.75;;;15.93;77.27
32761;BME280;19126;47.472;7.850;2023-01-01T12:49:29;97007.91;;;15.90;78.64
32761;BME280;19126;47.472;7.850;2023-01-01T12:52:14;97012.34;;;15.82;77.47
32761;BME280;19126;47.472;7.850;2023-01-01T12:55:43;97014.94;;;15.69;78.69
32761;BME280;19126;47.472;7.850;2023-01-01T12:58:18;97018.16;;;15.64;78.98
32761;BME280;19126;47.472;7.850;2023-01-01T13:00:54;97008.97;;;15.60;77.74
32761;BME280;19126;47.472;7.850;2023-01-01T13:03:27;97008.13;;;15.53;78.02
32761;BME280;19126;47.472;7.850;2023-01-01T13:05:56;97010.59;;;15.55;80.81
32761;BME280;19126;47.472;7.850;2023-01-01T13:08:24;96997.91;;;15.50;83.10
32761;BME280;19126;47.472;7.850;2023-01-01T13:10:56;97015.03;;;15.54;80.80
32761;BME280;19126;47.472;7.850;2023-01-01T13:13:23;97003.22;;;15.50;80.64
32761;BME280;19126;47.472;7.850;2023-01-01T13:15:53;97007.88;;;15.48;82.49
32761;BME280;19126;47.472;7.850;2023-01-01T13:18:28;97014.56;;;15.37;83.52
32761;BME280;19126;47.472;7.850;2023-01-01T13:21:02;97012.03;;;15.22;82.03
32761;BME280;19126;47.472;7.850;2023-01-01T13:23:48;97004.22;;;15.07;82.74
32761;BME280;19126;47.472;7.850;2023-01-01T13:26:39;97007.78;;;14.92;83.39
32761;BME280;19126;47.472;7.850;2023-01-01T13:29:34;97000.88;;;14.98;82.94
32761;BME280;19126;47.472;7.850;2023-01-01T13:32:10;97008.56;;;14.93;81.71
32761;BME280;19126;47.472;7.850;2023-01-01T13:35:01;97002.66;;;14.91;82.54
32761;BME280;19126;47.472;7.850;2023-01-01T13:37:40;97002.38;;;14.79;82.81
32761;BME280;19126;47.472;7.850;2023-01-01T13:43:29;97005.97;;;14.71;82.09
32761;BME280;19126;47.472;7.850;2023-01-01T13:46:01;97006.16;;;14.70;82.43
32761;BME280;19126;47.472;7.850;2023-01-01T13:49:17;96998.97;;;14.63;82.85
32761;BME280;19126;47.472;7.850;2023-01-01T13:52:27;96997.00;;;14.50;83.39
32761;BME280;19126;47.472;7.850;2023-01-01T13:55:42;97003.69;;;14.46;83.28
32761;BME280;19126;47.472;7.850;2023-01-01T13:59:03;97000.59;;;14.43;82.62
32761;BME280;19126;47.472;7.850;2023-01-01T14:01:52;97001.41;;;14.43;83.00
32761;BME280;19126;47.472;7.850;2023-01-01T14:04:32;97004.69;;;14.45;83.75
32761;BME280;19126;47.472;7.850;2023-01-01T14:07:12;97000.28;;;14.31;84.39
32761;BME280;19126;47.472;7.850;2023-01-01T14:09:42;97008.22;;;14.31;84.05
32761;BME280;19126;47.472;7.850;2023-01-01T14:12:16;97003.59;;;14.18;84.00
32761;BME280;19126;47.472;7.850;2023-01-01T14:14:46;97008.09;;;14.17;84.26
32761;BME280;19126;47.472;7.850;2023-01-01T14:17:14;97011.47;;;14.11;84.72
32761;BME280;19126;47.472;7.850;2023-01-01T14:19:43;97005.72;;;14.07;85.95
32761;BME280;19126;47.472;7.850;2023-01-01T14:22:13;97002.94;;;13.94;86.44
32761;BME280;19126;47.472;7.850;2023-01-01T14:24:45;97012.88;;;13.92;86.40